Time;durP1;ratioP1;P1;durP2;ratioP2;P2;SDS_P1;SDS_P2;PMS_P1;PMS_P2;Temp;Humidity;BMP_temperature;BMP_pressure;BME280_temperature;BME280_humidity;BME280_pressure;Samples;Min_cycle;Max_cycle;Signal;HPM_P1;HPM_P2
2023/06/23 00:00:13;;;;;;;5.72;2.00;;;;;;;;;;5020072;28;20030;-76
2023/06/23 00:02:41;;;;;;;6.93;2.05;;;;;;;;;;5039609;28;20029;-79
2023/06/23 00:05:07;;;;;;;6.03;2.00;;;;;;;;;;5032388;28;20029;-77
2023/06/23 00:07:33;;;;;;;4.28;1.73;;;;;;;;;;5014277;28;20069;-75
2023/06/23 00:09:58;;;;;;;5.50;1.70;;;;;;;;;;5031965;28;20063;-75
2023/06/23 00:12:24;;;;;;;6.07;1.60;;;;;;;;;;5032882;28;20033;-77
2023/06/23 00:14:49;;;;;;;6.57;2.03;;;;;;;;;;5033667;28;20033;-77
2023/06/23 00:17:15;;;;;;;3.70;1.20;;;;;;;;;;5019600;28;20025;-79
2023/06/23 00:19:41;;;;;;;4.80;2.08;;;;;;;;;;5017982;28;20048;-78
2023/06/23 00:22:09;;;;;;;6.28;1.60;;;;;;;;;;5036117;28;20033;-77
2023/06/23 00:24:35;;;;;;;2.65;1.33;;;;;;;;;;5035867;28;20481;-77
2023/06/23 00:27:00;;;;;;;2.55;1.23;;;;;;;;;;5038084;28;20025;-78
2023/06/23 00:29:26;;;;;;;4.13;1.20;;;;;;;;;;5036304;28;20029;-76
2023/06/23 00:31:51;;;;;;;3.50;1.42;;;;;;;;;;5033644;28;20022;-77
2023/06/23 00:34:17;;;;;;;3.80;1.80;;;;;;;;;;5032926;28;20060;-77
2023/06/23 00:36:42;;;;;;;4.68;1.20;;;;;;;;;;5017696;28;20030;-77
2023/06/23 00:39:08;;;;;;;5.10;1.15;;;;;;;;;;5033917;28;20541;-78
2023/06/23 00:41:34;;;;;;;2.75;1.30;;;;;;;;;;5013044;28;20064;-77
2023/06/23 00:44:01;;;;;;;3.40;1.15;;;;;;;;;;5031776;28;20035;-77
2023/06/23 00:46:27;;;;;;;3.72;1.20;;;;;;;;;;4997812;28;20021;-77
2023/06/23 00:48:53;;;;;;;4.97;1.15;;;;;;;;;;5031746;28;20034;-78
2023/06/23 00:51:22;;;;;;;3.85;0.95;;;;;;;;;;5017506;28;20108;-77
2023/06/23 00:53:47;;;;;;;2.70;0.90;;;;;;;;;;5036010;28;20505;-78
2023/06/23 00:56:18;;;;;;;2.78;0.88;;;;;;;;;;5034840;28;20163;-77
2023/06/23 00:58:43;;;;;;;3.47;1.00;;;;;;;;;;5018087;28;20535;-77
2023/06/23 01:01:10;;;;;;;2.67;1.33;;;;;;;;;;5001312;28;20033;-75
2023/06/23 01:03:36;;;;;;;2.15;0.80;;;;;;;;;;5017852;28;20103;-77
2023/06/23 01:06:21;;;;;;;2.33;0.90;;;;;;;;;;5035596;28;20583;-76
2023/06/23 01:08:51;;;;;;;2.08;0.70;;;;;;;;;;5035549;28;20021;-78
2023/06/23 01:11:23;;;;;;;1.75;0.57;;;;;;;;;;5034964;28;20032;-77
2023/06/23 01:13:49;;;;;;;1.67;0.73;;;;;;;;;;5035315;28;20366;-75
2023/06/23 01:16:17;;;;;;;3.47;0.70;;;;;;;;;;5016690;28;20129;-77
2023/06/23 01:18:57;;;;;;;2.65;0.70;;;;;;;;;;5017574;28;20026;-77
2023/06/23 01:21:46;;;;;;;2.03;0.82;;;;;;;;;;5034865;28;20112;-76
2023/06/23 01:24:30;;;;;;;4.18;0.90;;;;;;;;;;5006468;28;20293;-77
2023/06/23 01:27:01;;;;;;;3.72;0.63;;;;;;;;;;5035113;28;20021;-77
2023/06/23 01:29:31;;;;;;;1.92;0.90;;;;;;;;;;5035148;28;20048;-78
2023/06/23 01:32:05;;;;;;;3.10;1.00;;;;;;;;;;5034182;28;20057;-78
2023/06/23 01:34:35;;;;;;;1.88;0.80;;;;;;;;;;5035024;28;20037;-78
2023/06/23 01:37:05;;;;;;;1.35;0.45;;;;;;;;;;5035156;28;20040;-77
2023/06/23 01:39:33;;;;;;;2.15;0.70;;;;;;;;;;5035093;28;20033;-77
2023/06/23 01:42:05;;;;;;;1.48;0.70;;;;;;;;;;5016891;28;20029;-76
2023/06/23 01:44:31;;;;;;;3.17;0.93;;;;;;;;;;5017035;28;20064;-77
2023/06/23 01:46:58;;;;;;;1.70;0.90;;;;;;;;;;5034899;28;20511;-77
2023/06/23 01:49:24;;;;;;;2.10;0.90;;;;;;;;;;5033924;28;20029;-77
2023/06/23 01:51:51;;;;;;;2.45;0.75;;;;;;;;;;5034473;28;20061;-78
2023/06/23 01:54:17;;;;;;;2.42;0.90;;;;;;;;;;5016921;28;20424;-77
2023/06/23 01:56:43;;;;;;;3.70;0.65;;;;;;;;;;5017209;28;20033;-78
2023/06/23 01:59:10;;;;;;;2.47;1.10;;;;;;;;;;5017121;28;20029;-77
2023/06/23 02:01:35;;;;;;;3.05;0.77;;;;;;;;;;5016575;28;20055;-79
2023/06/23 02:04:02;;;;;;;2.95;0.90;;;;;;;;;;5016073;28;20079;-77
2023/06/23 02:06:27;;;;;;;1.48;0.75;;;;;;;;;;5016906;28;20024;-77
2023/06/23 02:08:53;;;;;;;2.90;0.93;;;;;;;;;;5035434;28;20021;-75
2023/06/23 02:11:19;;;;;;;2.60;1.00;;;;;;;;;;5035196;28;20045;-76
2023/06/23 02:13:45;;;;;;;3.45;0.90;;;;;;;;;;5018715;28;20033;-77
2023/06/23 02:16:12;;;;;;;2.85;0.80;;;;;;;;;;5017567;28;20076;-75
2023/06/23 02:18:39;;;;;;;5.15;0.90;;;;;;;;;;5035631;28;20469;-76
2023/06/23 02:21:07;;;;;;;2.67;1.15;;;;;;;;;;5017684;28;20096;-77
2023/06/23 02:23:33;;;;;;;3.20;0.85;;;;;;;;;;5028119;28;20116;-78
2023/06/23 02:26:00;;;;;;;2.40;0.85;;;;;;;;;;5051859;28;20559;-77
2023/06/23 02:28:26;;;;;;;4.28;1.30;;;;;;;;;;5035205;28;20084;-77
2023/06/23 02:30:52;;;;;;;3.92;1.05;;;;;;;;;;5053290;28;20394;-78
2023/06/23 02:33:17;;;;;;;3.47;1.10;;;;;;;;;;5033227;28;20034;-77
2023/06/23 02:35:43;;;;;;;2.55;1.08;;;;;;;;;;5014087;28;20097;-76
2023/06/23 02:38:09;;;;;;;3.83;1.30;;;;;;;;;;5020486;28;20390;-77
2023/06/23 02:40:36;;;;;;;2.42;1.10;;;;;;;;;;5015873;28;20060;-77
2023/06/23 02:43:03;;;;;;;;;;;;;;;;;;5034416;28;20037;-75
2023/06/23 02:45:30;;;;;;;3.75;2.00;;;;;;;;;;5033661;28;20377;-77
2023/06/23 02:47:57;;;;;;;6.53;3.55;;;;;;;;;;4999946;28;20037;-77
2023/06/23 02:50:31;;;;;;;2.90;1.20;;;;;;;;;;5015990;28;20091;-78
2023/06/23 02:52:59;;;;;;;2.80;1.10;;;;;;;;;;5015992;28;20098;-76
2023/06/23 02:55:27;;;;;;;4.40;2.88;;;;;;;;;;5015233;28;20025;-76
2023/06/23 02:57:55;;;;;;;9.60;5.47;;;;;;;;;;5016002;28;20038;-76
2023/06/23 03:00:23;;;;;;;6.75;4.22;;;;;;;;;;5033790;28;20035;-77
2023/06/23 03:02:51;;;;;;;4.50;1.23;;;;;;;;;;5033308;28;20025;-75
2023/06/23 03:05:17;;;;;;;3.65;1.35;;;;;;;;;;5033260;28;20053;-77
2023/06/23 03:07:42;;;;;;;3.97;1.20;;;;;;;;;;5033257;28;20064;-76
2023/06/23 03:10:08;;;;;;;3.03;1.20;;;;;;;;;;5015461;28;20037;-76
2023/06/23 03:12:34;;;;;;;2.90;1.50;;;;;;;;;;5014113;28;20369;-77
2023/06/23 03:15:00;;;;;;;3.25;1.30;;;;;;;;;;5015612;28;20103;-76
2023/06/23 03:17:26;;;;;;;3.72;1.42;;;;;;;;;;4999182;28;20040;-77
2023/06/23 03:20:00;;;;;;;7.22;1.55;;;;;;;;;;5015442;28;20022;-76
2023/06/23 03:22:29;;;;;;;4.65;1.58;;;;;;;;;;5015194;28;20040;-77
2023/06/23 03:24:57;;;;;;;3.50;1.67;;;;;;;;;;5032783;28;20083;-77
2023/06/23 03:27:26;;;;;;;4.85;2.00;;;;;;;;;;5014482;28;20029;-77
2023/06/23 03:29:59;;;;;;;6.10;1.95;;;;;;;;;;5015243;28;20021;-78
2023/06/23 03:32:26;;;;;;;2.85;1.52;;;;;;;;;;5014858;28;20029;-77
2023/06/23 03:34:57;;;;;;;6.72;1.65;;;;;;;;;;5032784;28;20036;-78
2023/06/23 03:37:26;;;;;;;5.43;1.67;;;;;;;;;;5015110;28;20041;-77
2023/06/23 03:39:54;;;;;;;5.70;1.60;;;;;;;;;;5032624;28;20029;-78
2023/06/23 03:42:21;;;;;;;9.45;1.90;;;;;;;;;;5032047;28;20033;-77
2023/06/23 03:44:48;;;;;;;3.42;1.80;;;;;;;;;;4983969;28;20489;-76
2023/06/23 03:47:18;;;;;;;6.50;1.73;;;;;;;;;;4995347;28;20053;-76
2023/06/23 03:49:49;;;;;;;5.10;1.77;;;;;;;;;;5012784;28;20030;-77
2023/06/23 03:52:17;;;;;;;3.28;1.67;;;;;;;;;;5012358;28;20033;-76
2023/06/23 03:54:44;;;;;;;8.07;2.60;;;;;;;;;;5012596;28;20045;-75
2023/06/23 03:57:12;;;;;;;7.05;3.00;;;;;;;;;;5012770;28;20473;-77
2023/06/23 03:59:39;;;;;;;5.75;2.60;;;;;;;;;;5012671;28;20100;-75
2023/06/23 04:02:05;;;;;;;5.85;2.05;;;;;;;;;;5009757;28;20512;-77
2023/06/23 04:04:31;;;;;;;7.40;1.70;;;;;;;;;;5014868;28;20113;-77
2023/06/23 04:06:58;;;;;;;7.93;2.17;;;;;;;;;;5032415;28;20105;-77
2023/06/23 04:09:24;;;;;;;9.18;2.15;;;;;;;;;;5032847;28;20026;-77
2023/06/23 04:11:51;;;;;;;5.47;1.90;;;;;;;;;;5032919;28;20021;-77
2023/06/23 04:14:17;;;;;;;4.00;1.90;;;;;;;;;;5015497;28;20083;-77
2023/06/23 04:16:45;;;;;;;7.15;1.90;;;;;;;;;;5033875;28;20109;-77
2023/06/23 04:19:11;;;;;;;5.15;1.90;;;;;;;;;;4998801;28;20038;-76
2023/06/23 04:21:38;;;;;;;4.18;2.40;;;;;;;;;;5015705;28;20362;-77
2023/06/23 04:24:04;;;;;;;5.43;2.25;;;;;;;;;;5031577;28;20056;-78
2023/06/23 04:26:31;;;;;;;5.47;2.00;;;;;;;;;;5014925;28;20029;-78
2023/06/23 04:28:57;;;;;;;8.07;2.90;;;;;;;;;;5015203;28;20026;-75
2023/06/23 04:31:25;;;;;;;6.40;3.10;;;;;;;;;;5014751;28;20193;-75
2023/06/23 04:33:51;;;;;;;8.98;3.35;;;;;;;;;;5032530;28;20025;-78
2023/06/23 04:36:18;;;;;;;8.55;2.40;;;;;;;;;;5031405;28;20029;-77
2023/06/23 04:39:05;;;;;;;8.35;2.58;;;;;;;;;;5014897;28;20026;-78
2023/06/23 04:41:33;;;;;;;7.28;1.98;;;;;;;;;;5032181;28;20044;-77
2023/06/23 04:43:59;;;;;;;;;;;;;;;;;;5015651;28;20056;-76
2023/06/23 04:46:29;;;;;;;6.38;2.17;;;;;;;;;;5014394;28;20246;-77
2023/06/23 04:49:14;;;;;;;7.28;2.42;;;;;;;;;;5032823;28;20021;-75
2023/06/23 04:51:40;;;;;;;5.72;2.28;;;;;;;;;;5015971;28;20041;-75
2023/06/23 04:54:09;;;;;;;9.73;2.80;;;;;;;;;;5037034;28;20067;-76
2023/06/23 04:56:34;;;;;;;;;;;;;;;;;;5061424;22;20110;-81
2023/06/23 04:59:02;;;;;;;14.38;2.78;;;;;;;;;;5052725;28;19909;-81
2023/06/23 05:01:29;;;;;;;7.27;3.10;;;;;;;;;;5051292;28;20028;-80
2023/06/23 05:03:57;;;;;;;12.95;3.15;;;;;;;;;;5050143;28;20280;-79
2023/06/23 05:06:23;;;;;;;10.27;3.20;;;;;;;;;;5050119;28;20399;-80
2023/06/23 05:08:50;;;;;;;10.48;5.07;;;;;;;;;;5028408;28;20061;-81
2023/06/23 05:11:17;;;;;;;15.98;4.18;;;;;;;;;;5031215;28;20024;-80
2023/06/23 05:13:42;;;;;;;10.60;3.03;;;;;;;;;;5031618;28;20044;-80
2023/06/23 05:16:10;;;;;;;10.52;3.95;;;;;;;;;;5030218;28;20026;-80
2023/06/23 05:18:37;;;;;;;13.85;4.10;;;;;;;;;;5031414;28;20021;-80
2023/06/23 05:21:04;;;;;;;16.40;8.32;;;;;;;;;;5013767;28;20056;-81
2023/06/23 05:23:32;;;;;;;13.23;4.82;;;;;;;;;;5030549;28;20037;-80
2023/06/23 05:25:58;;;;;;;;;;;;;;;;;;5044181;28;20167;-82
2023/06/23 05:28:26;;;;;;;15.93;3.85;;;;;;;;;;5034199;28;20381;-80
2023/06/23 05:30:55;;;;;;;9.65;3.90;;;;;;;;;;5051194;28;20030;-80
2023/06/23 05:33:22;;;;;;;13.60;4.82;;;;;;;;;;5033632;28;20480;-80
2023/06/23 05:35:49;;;;;;;16.20;4.60;;;;;;;;;;5052270;28;20032;-81
2023/06/23 05:38:17;;;;;;;10.40;4.55;;;;;;;;;;5055291;28;20033;-80
2023/06/23 05:40:42;;;;;;;12.68;4.70;;;;;;;;;;5053528;28;20037;-81
2023/06/23 05:43:08;;;;;;;11.10;4.43;;;;;;;;;;5033605;28;20048;-81
2023/06/23 05:45:34;;;;;;;15.82;4.38;;;;;;;;;;5034728;28;20045;-80
2023/06/23 05:48:04;;;;;;;13.63;4.07;;;;;;;;;;5034837;28;20025;-81
2023/06/23 05:50:34;;;;;;;15.90;4.28;;;;;;;;;;5033780;28;20037;-80
2023/06/23 05:53:02;;;;;;;13.15;4.18;;;;;;;;;;5017626;28;20538;-81
2023/06/23 05:55:32;;;;;;;13.83;4.83;;;;;;;;;;5018110;28;20397;-80
2023/06/23 05:58:01;;;;;;;13.13;4.13;;;;;;;;;;5017415;28;20064;-81
2023/06/23 06:00:30;;;;;;;10.23;3.70;;;;;;;;;;5048182;28;20025;-80
2023/06/23 06:02:57;;;;;;;12.85;3.88;;;;;;;;;;5054445;28;20025;-81
2023/06/23 06:05:24;;;;;;;11.55;3.33;;;;;;;;;;5053295;28;20033;-80
2023/06/23 06:07:50;;;;;;;9.48;4.00;;;;;;;;;;5053633;28;20036;-81
2023/06/23 06:10:17;;;;;;;6.47;2.95;;;;;;;;;;5053123;28;20033;-79
2023/06/23 06:12:44;;;;;;;6.10;2.92;;;;;;;;;;5052694;28;20036;-80
2023/06/23 06:15:10;;;;;;;6.60;2.63;;;;;;;;;;5052842;28;20079;-80
2023/06/23 06:17:38;;;;;;;9.15;2.83;;;;;;;;;;5054009;28;20025;-80
2023/06/23 06:20:04;;;;;;;6.15;2.65;;;;;;;;;;5052549;28;20033;-81
2023/06/23 06:22:32;;;;;;;8.02;2.50;;;;;;;;;;5052192;28;20048;-81
2023/06/23 06:24:58;;;;;;;6.30;2.70;;;;;;;;;;5035749;28;20074;-82
2023/06/23 06:27:24;;;;;;;9.93;2.60;;;;;;;;;;5036076;28;20064;-79
2023/06/23 06:29:50;;;;;;;6.18;2.72;;;;;;;;;;5053629;28;20029;-80
2023/06/23 06:32:16;;;;;;;9.63;2.58;;;;;;;;;;5052543;28;20047;-79
2023/06/23 06:34:43;;;;;;;6.50;2.40;;;;;;;;;;5035932;28;20041;-79
2023/06/23 06:37:09;;;;;;;5.88;1.80;;;;;;;;;;5035956;28;20029;-79
2023/06/23 06:39:36;;;;;;;10.82;1.85;;;;;;;;;;5036163;28;20081;-77
2023/06/23 06:42:02;;;;;;;8.23;1.70;;;;;;;;;;5052373;28;20082;-78
2023/06/23 06:44:30;;;;;;;4.00;1.90;;;;;;;;;;5055306;28;20025;-80
2023/06/23 06:46:55;;;;;;;6.88;1.85;;;;;;;;;;5064712;28;20044;-80
2023/06/23 06:49:22;;;;;;;9.98;2.13;;;;;;;;;;5066046;28;20064;-79
2023/06/23 06:51:48;;;;;;;8.73;1.42;;;;;;;;;;5037656;28;20036;-79
2023/06/23 06:54:15;;;;;;;8.55;1.55;;;;;;;;;;5063476;28;20105;-81
2023/06/23 06:56:41;;;;;;;3.22;1.30;;;;;;;;;;5062587;28;20064;-79
2023/06/23 06:59:06;;;;;;;8.50;1.88;;;;;;;;;;5059128;28;20037;-80
2023/06/23 07:01:32;;;;;;;7.75;2.00;;;;;;;;;;5042485;28;20418;-80
2023/06/23 07:03:58;;;;;;;5.65;1.40;;;;;;;;;;5059312;28;20063;-80
2023/06/23 07:06:28;;;;;;;6.80;1.75;;;;;;;;;;5060506;28;20472;-80
2023/06/23 07:08:53;;;;;;;8.07;1.67;;;;;;;;;;5052250;28;20111;-79
2023/06/23 07:11:19;;;;;;;7.78;1.65;;;;;;;;;;5060013;28;20045;-80
2023/06/23 07:13:45;;;;;;;2.67;1.60;;;;;;;;;;5045589;28;20042;-80
2023/06/23 07:16:10;;;;;;;2.83;1.40;;;;;;;;;;5045762;28;20033;-79
2023/06/23 07:18:36;;;;;;;5.55;1.80;;;;;;;;;;5045283;28;20025;-79
2023/06/23 07:21:03;;;;;;;4.35;1.70;;;;;;;;;;5045088;28;20018;-79
2023/06/23 07:23:29;;;;;;;6.80;1.77;;;;;;;;;;5039766;28;20576;-78
2023/06/23 07:25:54;;;;;;;9.30;1.95;;;;;;;;;;5055889;28;20043;-79
2023/06/23 07:28:23;;;;;;;3.92;1.80;;;;;;;;;;5064344;28;20036;-79
2023/06/23 07:30:48;;;;;;;4.97;2.55;;;;;;;;;;5065135;28;20040;-80
2023/06/23 07:33:14;;;;;;;5.03;1.95;;;;;;;;;;5060431;28;20033;-80
2023/06/23 07:35:40;;;;;;;7.63;1.92;;;;;;;;;;5043459;28;20040;-80
2023/06/23 07:38:05;;;;;;;4.45;1.92;;;;;;;;;;5054176;28;20052;-79
2023/06/23 07:40:34;;;;;;;4.88;2.03;;;;;;;;;;5049903;28;20029;-78
2023/06/23 07:43:00;;;;;;;5.38;1.90;;;;;;;;;;5058735;28;20029;-82
2023/06/23 07:45:26;;;;;;;5.25;1.90;;;;;;;;;;5060318;28;20051;-81
2023/06/23 07:47:52;;;;;;;4.13;1.98;;;;;;;;;;5057959;28;20025;-80
2023/06/23 07:50:20;;;;;;;3.58;1.85;;;;;;;;;;5063193;28;20086;-81
2023/06/23 07:52:51;;;;;;;5.05;2.33;;;;;;;;;;5073903;28;20033;-80
2023/06/23 07:55:20;;;;;;;6.68;2.33;;;;;;;;;;5075145;28;20037;-83
2023/06/23 07:57:47;;;;;;;3.70;2.20;;;;;;;;;;5071037;28;20072;-83
2023/06/23 08:00:12;;;;;;;5.45;2.13;;;;;;;;;;5054631;28;20403;-82
2023/06/23 08:02:42;;;;;;;5.45;2.47;;;;;;;;;;5053882;28;20013;-82
2023/06/23 08:05:08;;;;;;;3.92;2.20;;;;;;;;;;5053442;28;20089;-82
2023/06/23 08:07:36;;;;;;;4.15;2.25;;;;;;;;;;5055349;28;20035;-82
2023/06/23 08:10:02;;;;;;;7.47;2.13;;;;;;;;;;5038025;28;20053;-81
2023/06/23 08:12:27;;;;;;;4.85;2.20;;;;;;;;;;5036976;28;20037;-81
2023/06/23 08:14:55;;;;;;;4.18;1.90;;;;;;;;;;5064166;28;20107;-80
2023/06/23 08:17:21;;;;;;;6.00;2.30;;;;;;;;;;5092926;28;20042;-80
2023/06/23 08:19:50;;;;;;;3.22;2.10;;;;;;;;;;5088475;28;20041;-81
2023/06/23 08:22:16;;;;;;;8.45;2.60;;;;;;;;;;5071608;28;20125;-79
2023/06/23 08:24:41;;;;;;;3.55;2.20;;;;;;;;;;5076425;28;20129;-81
2023/06/23 08:27:07;;;;;;;6.20;2.30;;;;;;;;;;5061078;28;20068;-84
2023/06/23 08:29:33;;;;;;;3.42;2.20;;;;;;;;;;5057380;28;20036;-82
2023/06/23 08:31:59;;;;;;;5.90;2.30;;;;;;;;;;5038167;28;20034;-78
2023/06/23 08:34:24;;;;;;;3.15;1.83;;;;;;;;;;5014777;28;20045;-78
2023/06/23 08:36:50;;;;;;;4.05;2.20;;;;;;;;;;5031745;28;20298;-79
2023/06/23 08:39:15;;;;;;;6.43;1.85;;;;;;;;;;5030558;28;20476;-78
2023/06/23 08:41:41;;;;;;;6.40;2.17;;;;;;;;;;5030189;28;20037;-77
2023/06/23 08:44:10;;;;;;;5.13;2.10;;;;;;;;;;5031306;28;20030;-78
2023/06/23 08:46:40;;;;;;;3.70;2.15;;;;;;;;;;5031477;28;20488;-78
2023/06/23 08:49:06;;;;;;;5.57;2.22;;;;;;;;;;5035466;28;20104;-78
2023/06/23 08:51:32;;;;;;;5.32;2.20;;;;;;;;;;5049929;28;20032;-79
2023/06/23 08:53:58;;;;;;;3.83;1.98;;;;;;;;;;5033607;28;20033;-78
2023/06/23 08:56:25;;;;;;;3.85;2.10;;;;;;;;;;5051334;28;20376;-79
2023/06/23 08:58:50;;;;;;;5.70;2.13;;;;;;;;;;5051570;28;20595;-79
2023/06/23 09:01:16;;;;;;;2.70;1.63;;;;;;;;;;5051280;28;20029;-79
2023/06/23 09:03:42;;;;;;;8.27;2.55;;;;;;;;;;5051234;28;20116;-78
2023/06/23 09:06:07;;;;;;;6.50;2.28;;;;;;;;;;5049505;28;20106;-78
2023/06/23 09:08:33;;;;;;;8.68;1.85;;;;;;;;;;5051361;28;20032;-77
2023/06/23 09:10:59;;;;;;;4.53;2.00;;;;;;;;;;5034934;28;20037;-78
2023/06/23 09:13:33;;;;;;;3.10;1.90;;;;;;;;;;5054020;28;20036;-77
2023/06/23 09:15:59;;;;;;;4.65;2.05;;;;;;;;;;5037306;28;20033;-79
2023/06/23 09:18:25;;;;;;;4.95;1.90;;;;;;;;;;5054354;28;20039;-78
2023/06/23 09:20:52;;;;;;;4.43;1.90;;;;;;;;;;5053958;28;20020;-78
2023/06/23 09:23:19;;;;;;;5.60;1.73;;;;;;;;;;5055093;28;20033;-78
2023/06/23 09:25:45;;;;;;;3.25;1.92;;;;;;;;;;5054805;28;20033;-78
2023/06/23 09:28:30;;;;;;;6.75;2.00;;;;;;;;;;5055297;28;20033;-78
2023/06/23 09:30:57;;;;;;;4.80;1.92;;;;;;;;;;5036930;28;20028;-78
2023/06/23 09:33:23;;;;;;;4.95;2.00;;;;;;;;;;5054666;28;20031;-79
2023/06/23 09:35:51;;;;;;;4.25;1.90;;;;;;;;;;5036920;28;20028;-79
2023/06/23 09:38:18;;;;;;;3.55;2.20;;;;;;;;;;5052482;28;20480;-80
2023/06/23 09:40:43;;;;;;;3.88;1.75;;;;;;;;;;5054257;28;20064;-80
2023/06/23 09:43:09;;;;;;;3.95;1.42;;;;;;;;;;5054562;28;20075;-80
2023/06/23 09:45:34;;;;;;;4.53;1.83;;;;;;;;;;5053054;28;20025;-79
2023/06/23 09:48:00;;;;;;;4.95;1.70;;;;;;;;;;5053156;28;20025;-79
2023/06/23 09:50:27;;;;;;;3.08;1.70;;;;;;;;;;5054261;28;20020;-77
2023/06/23 09:53:05;;;;;;;2.78;1.35;;;;;;;;;;5054170;28;20021;-78
2023/06/23 09:55:33;;;;;;;3.58;2.05;;;;;;;;;;5052591;28;20033;-78
2023/06/23 09:58:02;;;;;;;3.40;1.52;;;;;;;;;;5054369;28;20514;-78
2023/06/23 10:00:31;;;;;;;3.53;1.52;;;;;;;;;;5053808;28;20082;-78
2023/06/23 10:03:00;;;;;;;3.38;1.52;;;;;;;;;;5054098;28;20082;-78
2023/06/23 10:05:33;;;;;;;3.95;1.85;;;;;;;;;;5052675;28;20489;-78
2023/06/23 10:08:10;;;;;;;3.00;1.40;;;;;;;;;;5036086;28;20081;-77
2023/06/23 10:10:43;;;;;;;4.15;1.98;;;;;;;;;;5053619;28;20025;-78
2023/06/23 10:13:09;;;;;;;3.22;1.60;;;;;;;;;;5053025;28;20488;-80
2023/06/23 10:15:35;;;;;;;3.83;1.52;;;;;;;;;;5052440;28;20037;-79
2023/06/23 10:18:01;;;;;;;4.47;1.60;;;;;;;;;;5053795;28;20078;-78
2023/06/23 10:20:27;;;;;;;2.53;1.35;;;;;;;;;;5052317;28;20115;-80
2023/06/23 10:22:53;;;;;;;3.83;1.55;;;;;;;;;;5054958;28;20112;-79
2023/06/23 10:25:19;;;;;;;3.40;1.60;;;;;;;;;;5036658;28;20029;-79
2023/06/23 10:27:46;;;;;;;3.25;1.17;;;;;;;;;;5053605;28;20480;-80
2023/06/23 10:30:14;;;;;;;4.93;1.50;;;;;;;;;;5054290;28;20227;-79
2023/06/23 10:32:43;;;;;;;4.38;1.63;;;;;;;;;;5054685;28;20029;-79
2023/06/23 10:35:08;;;;;;;;;;;;;;;;;;5054819;28;20052;-79
2023/06/23 10:37:34;;;;;;;3.28;1.45;;;;;;;;;;5054416;28;20505;-79
2023/06/23 10:40:04;;;;;;;2.63;1.50;;;;;;;;;;5041357;28;20033;-79
2023/06/23 10:42:34;;;;;;;2.90;1.45;;;;;;;;;;5055849;28;20029;-80
2023/06/23 10:45:01;;;;;;;2.78;1.48;;;;;;;;;;5056367;28;20385;-80
2023/06/23 10:47:27;;;;;;;3.38;1.20;;;;;;;;;;5055778;28;20039;-80
2023/06/23 10:49:53;;;;;;;3.20;1.50;;;;;;;;;;5054260;28;20040;-79
2023/06/23 10:52:18;;;;;;;3.08;1.70;;;;;;;;;;5055215;28;20033;-79
2023/06/23 10:54:44;;;;;;;3.20;1.60;;;;;;;;;;5056929;28;20616;-80
2023/06/23 10:57:10;;;;;;;7.40;1.60;;;;;;;;;;5048263;22;20056;-81
2023/06/23 10:59:40;;;;;;;2.40;1.17;;;;;;;;;;5000217;28;20036;-78
2023/06/23 11:02:10;;;;;;;4.35;1.25;;;;;;;;;;5015618;28;20109;-80
2023/06/23 11:04:38;;;;;;;4.68;1.63;;;;;;;;;;5016489;28;20155;-78
2023/06/23 11:07:08;;;;;;;2.65;1.40;;;;;;;;;;5034144;28;20033;-81
2023/06/23 11:09:58;;;;;;;2.25;1.30;;;;;;;;;;5016504;28;20033;-80
2023/06/23 11:12:30;;;;;;;1.77;0.98;;;;;;;;;;5049846;28;20091;-80
2023/06/23 11:15:00;;;;;;;3.03;1.13;;;;;;;;;;5032290;28;20558;-79
2023/06/23 11:17:26;;;;;;;2.20;1.27;;;;;;;;;;5032702;28;20025;-80
2023/06/23 11:19:51;;;;;;;4.38;1.40;;;;;;;;;;5014591;28;20400;-79
2023/06/23 11:22:21;;;;;;;2.83;1.33;;;;;;;;;;5031653;28;20041;-79
2023/06/23 11:24:54;;;;;;;3.40;1.27;;;;;;;;;;5015080;28;20083;-80
2023/06/23 11:27:19;;;;;;;2.55;0.90;;;;;;;;;;5015336;28;20053;-80
2023/06/23 11:30:04;;;;;;;7.68;1.60;;;;;;;;;;5031701;28;20059;-80
2023/06/23 11:32:30;;;;;;;3.50;1.30;;;;;;;;;;5015328;28;20044;-77
2023/06/23 11:34:57;;;;;;;2.28;1.20;;;;;;;;;;5031266;28;20100;-79
2023/06/23 11:37:25;;;;;;;2.20;1.20;;;;;;;;;;5030653;28;20087;-78
2023/06/23 11:39:53;;;;;;;3.80;1.30;;;;;;;;;;5032142;28;20041;-79
2023/06/23 11:42:18;;;;;;;1.65;0.98;;;;;;;;;;5031635;28;20037;-79
2023/06/23 11:44:44;;;;;;;2.83;1.40;;;;;;;;;;5031731;28;20033;-81
2023/06/23 11:47:10;;;;;;;2.17;1.10;;;;;;;;;;5032961;28;20017;-84
2023/06/23 11:49:36;;;;;;;3.60;1.20;;;;;;;;;;5032042;28;20061;-80
2023/06/23 11:52:05;;;;;;;3.55;1.48;;;;;;;;;;5007635;28;20030;-79
2023/06/23 11:54:32;;;;;;;4.55;1.30;;;;;;;;;;4991970;28;20508;-79
2023/06/23 11:57:00;;;;;;;2.15;1.13;;;;;;;;;;5007868;28;20050;-79
2023/06/23 11:59:26;;;;;;;3.33;1.47;;;;;;;;;;4995628;28;20481;-79
2023/06/23 12:01:52;;;;;;;3.30;1.30;;;;;;;;;;4994725;28;20033;-79
2023/06/23 12:04:22;;;;;;;3.67;1.20;;;;;;;;;;4995052;28;20124;-79
2023/06/23 12:06:50;;;;;;;5.60;1.60;;;;;;;;;;5011846;28;20022;-78
2023/06/23 12:09:16;;;;;;;3.85;1.30;;;;;;;;;;4993250;28;20027;-78
2023/06/23 12:11:42;;;;;;;2.63;1.25;;;;;;;;;;5008995;28;20031;-80
2023/06/23 12:14:08;;;;;;;4.95;1.20;;;;;;;;;;4993034;28;20129;-81
2023/06/23 12:16:35;;;;;;;1.85;1.13;;;;;;;;;;5004108;28;20041;-79
2023/06/23 12:19:01;;;;;;;5.20;1.38;;;;;;;;;;4996550;28;20516;-80
2023/06/23 12:21:28;;;;;;;3.45;1.40;;;;;;;;;;5013197;28;20033;-79
2023/06/23 12:23:56;;;;;;;4.25;1.42;;;;;;;;;;5012960;28;20030;-82
2023/06/23 12:26:21;;;;;;;5.20;1.42;;;;;;;;;;4979468;28;20034;-80
2023/06/23 12:28:48;;;;;;;4.40;1.58;;;;;;;;;;4996480;28;20352;-81
2023/06/23 12:31:23;;;;;;;6.88;1.55;;;;;;;;;;4994362;28;20037;-81
2023/06/23 12:33:50;;;;;;;4.22;1.48;;;;;;;;;;4993022;28;20034;-85
2023/06/23 12:36:15;;;;;;;4.05;1.27;;;;;;;;;;5000687;28;20033;-84
2023/06/23 12:38:41;;;;;;;3.03;1.10;;;;;;;;;;5034261;28;20037;-85
2023/06/23 12:41:15;;;;;;;5.72;1.42;;;;;;;;;;5035299;28;20080;-84
2023/06/23 12:43:42;;;;;;;8.68;1.55;;;;;;;;;;5018125;28;20027;-81
2023/06/23 12:46:09;;;;;;;2.78;1.17;;;;;;;;;;5035349;28;20135;-79
2023/06/23 12:48:34;;;;;;;1.25;0.50;;;;;;;;;;5028939;28;20026;-80
2023/06/23 12:51:00;;;;;;;1.30;0.60;;;;;;;;;;5001144;28;20214;-81
2023/06/23 12:53:26;;;;;;;3.22;0.70;;;;;;;;;;5015887;28;20064;-80
2023/06/23 12:55:52;;;;;;;2.47;0.50;;;;;;;;;;5016496;28;20033;-79
2023/06/23 12:58:17;;;;;;;2.13;0.93;;;;;;;;;;5018103;28;20112;-86
2023/06/23 13:00:43;;;;;;;15.98;12.02;;;;;;;;;;5014192;28;20192;-86
2023/06/23 13:03:14;;;;;;;15.30;8.00;;;;;;;;;;5007729;28;20037;-90
2023/06/23 13:05:43;;;;;;;3.00;1.70;;;;;;;;;;5004910;28;20053;-89
2023/06/23 13:08:09;;;;;;;3.85;0.90;;;;;;;;;;5005962;28;20036;-89
2023/06/23 13:10:35;;;;;;;3.17;1.63;;;;;;;;;;4989409;28;20480;-88
2023/06/23 13:13:02;;;;;;;3.38;2.00;;;;;;;;;;5006648;28;20106;-89
2023/06/23 13:15:29;;;;;;;1.70;0.75;;;;;;;;;;5020384;28;20065;-90
2023/06/23 13:17:58;;;;;;;2.75;1.30;;;;;;;;;;4986828;28;20033;-89
2023/06/23 13:20:26;;;;;;;;;;;;;;;;;;5002499;28;20038;-89
2023/06/23 13:22:51;;;;;;;2.05;1.02;;;;;;;;;;4997387;28;19917;-90
2023/06/23 13:25:17;;;;;;;1.65;0.70;;;;;;;;;;4965359;28;20030;-89
2023/06/23 13:27:46;;;;;;;2.22;0.90;;;;;;;;;;4978269;28;20022;-90
2023/06/23 13:30:14;;;;;;;2.50;0.90;;;;;;;;;;5001898;28;20144;-89
2023/06/23 13:32:40;;;;;;;23.27;16.20;;;;;;;;;;4990657;28;20025;-88
2023/06/23 13:35:07;;;;;;;13.38;8.07;;;;;;;;;;4999346;28;20040;-88
2023/06/23 13:37:34;;;;;;;27.25;18.88;;;;;;;;;;5033673;28;20030;-89
2023/06/23 13:40:00;;;;;;;15.68;10.05;;;;;;;;;;5032880;28;20034;-88
2023/06/23 13:42:26;;;;;;;14.68;10.20;;;;;;;;;;5000229;28;20033;-88
2023/06/23 13:44:52;;;;;;;4.18;2.45;;;;;;;;;;5016235;28;20393;-88
2023/06/23 13:47:18;;;;;;;1.38;0.73;;;;;;;;;;4999905;28;20036;-88
2023/06/23 13:49:44;;;;;;;6.05;3.33;;;;;;;;;;5016548;28;20396;-88
2023/06/23 13:52:13;;;;;;;3.17;1.63;;;;;;;;;;5015861;28;20025;-88
2023/06/23 13:54:38;;;;;;;3.00;1.33;;;;;;;;;;5015502;28;20045;-86
2023/06/23 13:57:05;;;;;;;4.53;1.35;;;;;;;;;;5014249;28;20038;-87
2023/06/23 13:59:31;;;;;;;3.20;1.55;;;;;;;;;;4998592;28;20053;-86
2023/06/23 14:01:59;;;;;;;2.47;1.17;;;;;;;;;;4997397;28;20548;-82
2023/06/23 14:04:26;;;;;;;3.05;1.20;;;;;;;;;;4980917;28;20121;-82
2023/06/23 14:07:01;;;;;;;1.75;0.90;;;;;;;;;;5014459;28;20029;-81
2023/06/23 14:09:27;;;;;;;1.73;0.82;;;;;;;;;;5013580;28;20030;-82
2023/06/23 14:12:03;;;;;;;2.33;0.90;;;;;;;;;;5008237;28;20084;-82
2023/06/23 14:14:38;;;;;;;4.13;1.85;;;;;;;;;;4996140;28;20037;-82
2023/06/23 14:17:04;;;;;;;7.95;1.20;;;;;;;;;;5013227;28;20177;-81
2023/06/23 14:19:30;;;;;;;6.40;2.45;;;;;;;;;;5013550;28;20038;-81
2023/06/23 14:21:56;;;;;;;7.68;2.25;;;;;;;;;;5013107;28;20049;-82
2023/06/23 14:24:22;;;;;;;2.20;1.25;;;;;;;;;;5013424;28;20060;-86
2023/06/23 14:26:48;;;;;;;3.55;1.55;;;;;;;;;;5011953;28;20504;-81
2023/06/23 14:29:14;;;;;;;2.72;1.30;;;;;;;;;;5012984;28;20036;-81
2023/06/23 14:31:42;;;;;;;2.95;1.75;;;;;;;;;;5002061;28;20033;-81
2023/06/23 14:34:08;;;;;;;2.65;1.38;;;;;;;;;;5012948;28;20030;-81
2023/06/23 14:36:34;;;;;;;3.15;1.45;;;;;;;;;;4996712;28;20386;-80
2023/06/23 14:39:01;;;;;;;2.65;1.48;;;;;;;;;;5012904;28;20041;-81
2023/06/23 14:41:26;;;;;;;6.07;1.40;;;;;;;;;;5012752;28;20029;-80
2023/06/23 14:43:52;;;;;;;2.70;1.30;;;;;;;;;;5011241;28;20404;-80